Time;durP1;ratioP1;P1;durP2;ratioP2;P2;SDS_P1;SDS_P2;PMS_P1;PMS_P2;Temp;Humidity;BMP_temperature;BMP_pressure;BME280_temperature;BME280_humidity;BME280_pressure;Samples;Min_cycle;Max_cycle;Signal;HPM_P1;HPM_P2
2021/01/20 00:02:13;;;;;;;0.10;0.10;;;3.10;99.90;;;;;;6239088;22;20011;-89
2021/01/20 00:04:38;;;;;;;0.10;0.10;;;3.00;99.90;;;;;;6237807;23;20018;-89
2021/01/20 00:07:04;;;;;;;0.10;0.10;;;3.00;99.90;;;;;;6239378;22;20008;-89
2021/01/20 00:09:30;;;;;;;0.10;0.10;;;3.00;99.90;;;;;;6238846;23;20011;-89
2021/01/20 00:11:56;;;;;;;0.10;0.10;;;2.90;99.90;;;;;;6241371;23;20071;-89
2021/01/20 00:14:21;;;;;;;0.68;0.47;;;3.00;99.90;;;;;;6239462;23;20058;-89
2021/01/20 00:16:47;;;;;;;0.10;0.10;;;3.30;99.90;;;;;;6239906;23;20004;-89
2021/01/20 00:19:13;;;;;;;0.47;0.47;;;3.40;99.90;;;;;;6240906;23;20057;-90
2021/01/20 00:21:39;;;;;;;0.20;0.20;;;3.60;99.90;;;;;;6241325;22;20016;-89
2021/01/20 00:24:06;;;;;;;0.10;0.10;;;3.20;99.90;;;;;;6241259;22;20020;-90
2021/01/20 00:26:32;;;;;;;0.20;0.20;;;3.10;99.90;;;;;;6240861;22;20023;-90
2021/01/20 00:28:59;;;;;;;0.10;0.10;;;3.10;99.90;;;;;;6240417;23;20446;-90
2021/01/20 00:31:25;;;;;;;0.28;0.28;;;3.00;99.90;;;;;;6241771;22;20000;-89
2021/01/20 00:33:51;;;;;;;0.40;0.40;;;3.00;99.90;;;;;;6241783;22;20007;-89
2021/01/20 00:36:17;;;;;;;0.15;0.15;;;3.00;99.90;;;;;;6240961;23;20000;-89
2021/01/20 00:38:42;;;;;;;0.10;0.10;;;2.90;99.90;;;;;;6241753;22;20796;-89
2021/01/20 00:41:08;;;;;;;0.10;0.10;;;2.90;99.90;;;;;;6241273;22;20058;-88
2021/01/20 00:43:34;;;;;;;0.10;0.10;;;2.90;99.90;;;;;;6241196;22;20024;-88
2021/01/20 00:46:00;;;;;;;0.10;0.10;;;2.80;99.90;;;;;;6239793;23;20004;-88
2021/01/20 00:48:25;;;;;;;0.10;0.10;;;2.80;99.90;;;;;;6241462;22;20011;-88
2021/01/20 00:50:55;;;;;;;0.20;0.20;;;2.80;99.90;;;;;;6241952;22;20004;-88
2021/01/20 00:53:21;;;;;;;0.50;0.50;;;2.90;99.90;;;;;;6239862;23;20008;-89
2021/01/20 00:55:48;;;;;;;0.10;0.10;;;2.80;99.90;;;;;;6241211;22;20000;-89
2021/01/20 00:58:14;;;;;;;0.10;0.10;;;2.90;99.90;;;;;;6240294;23;20047;-90
2021/01/20 01:00:39;;;;;;;0.03;0.03;;;3.10;99.90;;;;;;6241021;22;20004;-89
2021/01/20 01:03:05;;;;;;;1.48;1.02;;;3.10;99.90;;;;;;6241832;23;20004;-89
2021/01/20 01:05:31;;;;;;;0.10;0.10;;;3.10;99.90;;;;;;6241222;23;20004;-89
2021/01/20 01:07:57;;;;;;;0.20;0.20;;;3.00;99.90;;;;;;6241796;23;20030;-89
2021/01/20 01:10:24;;;;;;;0.20;0.20;;;3.00;99.90;;;;;;6241567;23;20003;-89
2021/01/20 01:12:49;;;;;;;;;;;2.90;99.90;;;;;;6241970;23;20026;-89
2021/01/20 01:15:15;;;;;;;0.10;0.10;;;2.80;99.90;;;;;;6241471;22;20603;-89
2021/01/20 01:17:41;;;;;;;0.20;0.20;;;2.80;99.90;;;;;;6241814;22;20057;-90
2021/01/20 01:20:08;;;;;;;0.25;0.25;;;2.90;99.90;;;;;;6240059;23;20012;-90
2021/01/20 01:22:33;;;;;;;0.10;0.10;;;3.00;99.90;;;;;;6241811;22;20004;-90
2021/01/20 01:24:59;;;;;;;0.40;0.40;;;3.00;99.90;;;;;;6239908;23;20034;-90
2021/01/20 01:27:25;;;;;;;0.75;0.47;;;3.00;99.90;;;;;;6240196;23;20146;-90
2021/01/20 01:29:51;;;;;;;0.10;0.10;;;3.00;99.90;;;;;;6241899;23;20049;-90
2021/01/20 01:32:17;;;;;;;0.28;0.28;;;3.10;99.90;;;;;;6242026;22;20000;-89
2021/01/20 01:34:45;;;;;;;0.22;0.22;;;3.10;99.90;;;;;;6241739;22;20043;-90
2021/01/20 01:37:11;;;;;;;0.40;0.40;;;3.10;99.90;;;;;;6240610;23;20087;-90
2021/01/20 01:39:37;;;;;;;0.15;0.15;;;3.10;99.90;;;;;;6240260;23;20043;-90
2021/01/20 01:42:04;;;;;;;0.13;0.13;;;3.30;99.90;;;;;;6242059;22;20000;-90
2021/01/20 01:44:30;;;;;;;;;;;3.30;99.90;;;;;;6240546;23;20404;-91
2021/01/20 01:46:56;;;;;;;0.20;0.20;;;3.30;99.90;;;;;;6241841;22;19914;-90
2021/01/20 01:49:22;;;;;;;0.10;0.10;;;3.10;99.90;;;;;;6242140;22;20004;-90
2021/01/20 01:51:47;;;;;;;0.20;0.20;;;3.30;99.90;;;;;;6241361;22;20003;-89
2021/01/20 01:54:15;;;;;;;0.20;0.20;;;3.90;99.90;;;;;;6239221;23;20008;-88
2021/01/20 01:56:42;;;;;;;0.05;0.05;;;4.90;99.90;;;;;;6241538;22;20054;-89
2021/01/20 01:59:08;;;;;;;0.35;0.35;;;5.00;99.90;;;;;;6239914;23;20087;-89
2021/01/20 02:01:34;;;;;;;0.47;0.47;;;4.80;99.90;;;;;;6240981;23;20031;-89
2021/01/20 02:03:59;;;;;;;0.10;0.10;;;4.40;99.90;;;;;;6240978;22;20011;-89
2021/01/20 02:06:25;;;;;;;0.10;0.10;;;4.10;99.90;;;;;;6239790;23;20005;-89
2021/01/20 02:08:52;;;;;;;0.10;0.10;;;3.70;99.90;;;;;;6241371;22;20023;-89
2021/01/20 02:11:21;;;;;;;0.10;0.10;;;3.90;99.90;;;;;;6241549;22;20434;-90
2021/01/20 02:13:49;;;;;;;0.10;0.10;;;3.90;99.90;;;;;;6239306;23;20326;-89
2021/01/20 02:16:22;;;;;;;0.10;0.10;;;3.90;99.90;;;;;;6240944;23;20015;-90
2021/01/20 02:18:53;;;;;;;0.43;0.43;;;3.80;99.90;;;;;;6239681;23;20000;-89
2021/01/20 02:21:34;;;;;;;0.20;0.20;;;4.00;99.90;;;;;;6239151;23;20469;-90
2021/01/20 02:24:07;;;;;;;0.10;0.10;;;4.00;99.90;;;;;;6238976;23;20680;-89
2021/01/20 02:26:59;;;;;;;3.47;1.13;;;4.60;99.90;;;;;;6238974;23;20012;-90
2021/01/20 02:30:16;;;;;;;0.08;0.08;;;4.10;99.90;;;;;;6240778;22;20468;-90
2021/01/20 02:32:43;;;;;;;0.10;0.10;;;3.90;99.90;;;;;;6117673;23;20065;-90
2021/01/20 02:35:10;;;;;;;0.00;0.00;;;3.90;99.90;;;;;;6117552;23;20010;-90
2021/01/20 02:37:37;;;;;;;0.47;0.47;;;4.10;99.90;;;;;;6118746;23;20009;-90
2021/01/20 02:40:04;;;;;;;0.00;0.00;;;4.20;99.90;;;;;;6118136;23;20038;-89
2021/01/20 02:42:31;;;;;;;0.10;0.10;;;4.60;99.90;;;;;;6118108;23;20025;-90
2021/01/20 02:44:58;;;;;;;1.25;0.65;;;4.80;99.90;;;;;;6117478;23;20850;-89
2021/01/20 02:47:24;;;;;;;0.00;0.00;;;5.10;99.90;;;;;;6118338;23;20466;-90
2021/01/20 02:49:51;;;;;;;0.10;0.10;;;5.30;99.90;;;;;;6117841;23;20073;-90
2021/01/20 02:52:28;;;;;;;0.23;0.23;;;6.00;99.90;;;;;;6117872;23;20002;-90
2021/01/20 02:54:57;;;;;;;0.10;0.10;;;5.80;99.90;;;;;;6117928;23;20240;-90
2021/01/20 02:57:23;;;;;;;0.13;0.13;;;5.60;99.90;;;;;;6117868;23;20006;-89
2021/01/20 02:59:53;;;;;;;0.10;0.10;;;5.70;99.90;;;;;;6118843;23;20697;-90
2021/01/20 03:02:20;;;;;;;1.13;1.05;;;5.70;99.90;;;;;;6117603;23;20046;-89
2021/01/20 03:04:49;;;;;;;0.75;0.75;;;5.20;99.90;;;;;;6118066;23;20017;-90
2021/01/20 03:07:16;;;;;;;0.05;0.05;;;5.00;99.90;;;;;;6126185;23;20089;-89
2021/01/20 03:09:42;;;;;;;0.10;0.10;;;5.10;99.90;;;;;;6240359;22;20027;-89
2021/01/20 03:12:08;;;;;;;0.00;0.00;;;4.70;99.90;;;;;;6240440;23;20521;-89
2021/01/20 03:14:36;;;;;;;0.03;0.03;;;4.70;99.90;;;;;;6239934;22;20004;-89
2021/01/20 03:17:02;;;;;;;0.10;0.10;;;4.60;99.90;;;;;;6240703;22;20671;-89
2021/01/20 03:19:28;;;;;;;0.10;0.10;;;4.60;99.90;;;;;;6240247;22;20007;-89
2021/01/20 03:21:54;;;;;;;0.10;0.10;;;4.50;99.90;;;;;;6240307;23;20043;-89
2021/01/20 03:24:20;;;;;;;0.35;0.35;;;4.70;99.90;;;;;;6239178;23;20423;-89
2021/01/20 03:26:46;;;;;;;0.10;0.10;;;5.10;99.90;;;;;;6239045;23;20013;-89
2021/01/20 03:29:11;;;;;;;0.10;0.10;;;5.10;99.90;;;;;;6239997;22;20079;-89
2021/01/20 03:31:37;;;;;;;0.20;0.20;;;5.40;99.90;;;;;;6240430;23;20089;-89
2021/01/20 03:34:03;;;;;;;2.83;0.73;;;5.50;99.90;;;;;;6240380;23;20030;-89
2021/01/20 03:36:29;;;;;;;0.20;0.20;;;5.40;99.90;;;;;;6240104;23;20034;-89
2021/01/20 03:38:54;;;;;;;0.85;0.73;;;5.40;99.90;;;;;;6240320;22;20026;-89
2021/01/20 03:41:21;;;;;;;0.10;0.10;;;5.20;99.90;;;;;;6240145;23;20003;-90
2021/01/20 03:43:46;;;;;;;0.68;0.68;;;6.00;99.90;;;;;;6240585;23;20035;-90
2021/01/20 03:46:12;;;;;;;0.45;0.45;;;6.20;99.90;;;;;;6242450;22;20008;-90
2021/01/20 03:48:38;;;;;;;0.10;0.10;;;5.90;99.90;;;;;;6240869;23;20008;-90
2021/01/20 03:51:04;;;;;;;0.00;0.00;;;5.40;99.90;;;;;;6243615;23;20011;-89
2021/01/20 03:53:30;;;;;;;0.15;0.15;;;5.10;99.90;;;;;;6241542;22;20007;-89
2021/01/20 03:55:56;;;;;;;0.00;0.00;;;5.00;99.90;;;;;;6242239;22;20000;-89
2021/01/20 03:58:22;;;;;;;0.00;0.00;;;5.40;99.90;;;;;;6242315;23;20035;-89
2021/01/20 04:00:47;;;;;;;0.10;0.10;;;5.90;99.90;;;;;;6242190;22;20000;-89
2021/01/20 04:03:13;;;;;;;4.63;1.45;;;5.70;99.90;;;;;;6242057;23;20482;-89
2021/01/20 04:05:39;;;;;;;0.00;0.00;;;6.00;99.90;;;;;;6239960;23;20469;-89
2021/01/20 04:08:05;;;;;;;0.35;0.35;;;5.70;99.90;;;;;;6241981;22;20008;-89
2021/01/20 04:10:30;;;;;;;0.25;0.25;;;5.70;99.90;;;;;;6241568;22;20001;-89
2021/01/20 04:12:56;;;;;;;0.10;0.10;;;5.30;99.90;;;;;;6242140;23;20006;-90
2021/01/20 04:15:22;;;;;;;0.13;0.13;;;5.00;99.90;;;;;;6240612;23;20011;-89
2021/01/20 04:17:48;;;;;;;0.85;0.80;;;5.20;99.90;;;;;;6241511;22;20345;-89
2021/01/20 04:20:14;;;;;;;0.30;0.30;;;5.40;99.90;;;;;;6241931;22;20535;-89
2021/01/20 04:22:39;;;;;;;0.20;0.20;;;5.20;99.90;;;;;;6241236;22;20324;-88
2021/01/20 04:25:06;;;;;;;0.65;0.65;;;5.60;99.90;;;;;;6240109;23;20020;-89
2021/01/20 04:27:32;;;;;;;1.90;0.95;;;5.50;99.90;;;;;;6241220;22;20088;-89
2021/01/20 04:29:58;;;;;;;0.00;0.00;;;5.50;99.90;;;;;;6241979;22;20082;-90
2021/01/20 04:32:23;;;;;;;0.10;0.10;;;6.30;99.90;;;;;;6239934;23;20464;-90
2021/01/20 04:34:49;;;;;;;0.20;0.20;;;6.90;99.90;;;;;;6241460;23;20620;-90
2021/01/20 04:37:15;;;;;;;0.10;0.10;;;7.10;99.90;;;;;;6240219;23;20515;-89
2021/01/20 04:39:41;;;;;;;0.17;0.17;;;6.90;99.90;;;;;;6241747;22;20011;-90
2021/01/20 04:42:07;;;;;;;4.47;2.28;;;6.70;99.90;;;;;;6240279;23;20425;-90
2021/01/20 04:44:33;;;;;;;0.00;0.00;;;6.90;99.90;;;;;;6242123;23;20050;-90
2021/01/20 04:47:03;;;;;;;0.10;0.10;;;6.90;99.90;;;;;;6242175;22;20004;-90
2021/01/20 04:49:32;;;;;;;0.20;0.20;;;7.30;99.90;;;;;;6240220;23;20011;-90
2021/01/20 04:51:58;;;;;;;2.47;1.10;;;6.90;99.90;;;;;;6239780;23;20004;-90
2021/01/20 04:54:25;;;;;;;1.30;1.20;;;6.80;99.90;;;;;;6241473;22;20026;-89
2021/01/20 04:56:54;;;;;;;0.43;0.43;;;7.00;99.90;;;;;;6240754;22;20008;-89
2021/01/20 04:59:20;;;;;;;0.30;0.30;;;7.00;99.90;;;;;;6241486;22;20387;-89
2021/01/20 05:01:49;;;;;;;0.98;0.90;;;7.20;99.90;;;;;;6239410;23;20014;-89
2021/01/20 05:04:15;;;;;;;0.10;0.10;;;7.00;99.90;;;;;;6241336;22;20067;-88
2021/01/20 05:06:44;;;;;;;0.10;0.10;;;7.30;99.90;;;;;;6239825;23;20008;-88
2021/01/20 05:09:10;;;;;;;0.10;0.10;;;7.30;99.90;;;;;;6241495;22;20000;-88
2021/01/20 05:11:40;;;;;;;0.20;0.20;;;7.30;99.90;;;;;;6241505;22;20026;-89
2021/01/20 05:14:16;;;;;;;0.20;0.20;;;7.30;99.90;;;;;;6240760;22;20073;-89
2021/01/20 05:16:43;;;;;;;0.08;0.08;;;7.50;99.90;;;;;;6241589;22;20003;-89
2021/01/20 05:19:10;;;;;;;0.00;0.00;;;7.50;99.90;;;;;;6239387;23;20012;-89
2021/01/20 05:21:36;;;;;;;0.10;0.10;;;7.60;99.90;;;;;;6240153;23;20012;-90
2021/01/20 05:24:22;;;;;;;1.45;1.35;;;7.70;99.90;;;;;;6241206;22;20024;-90
2021/01/20 05:26:48;;;;;;;0.00;0.00;;;7.70;99.90;;;;;;6242034;22;20008;-90
2021/01/20 05:29:15;;;;;;;0.55;0.55;;;7.70;99.90;;;;;;6241433;22;20031;-89
2021/01/20 05:31:41;;;;;;;4.10;1.13;;;7.70;99.90;;;;;;6241322;22;20450;-89
2021/01/20 05:34:26;;;;;;;0.30;0.30;;;7.80;99.90;;;;;;6239738;23;20032;-90
2021/01/20 05:37:03;;;;;;;0.85;0.32;;;7.80;99.90;;;;;;6241645;22;20030;-88
2021/01/20 05:39:30;;;;;;;0.05;0.05;;;7.90;99.90;;;;;;6241754;22;20000;-91
2021/01/20 05:42:03;;;;;;;0.10;0.10;;;8.00;99.90;;;;;;6241116;23;20008;-90
2021/01/20 05:44:29;;;;;;;0.20;0.20;;;8.00;99.90;;;;;;6242151;22;20454;-91
2021/01/20 05:46:55;;;;;;;0.10;0.10;;;7.90;99.90;;;;;;6242701;22;20000;-91
2021/01/20 05:49:26;;;;;;;0.10;0.10;;;8.00;99.90;;;;;;6242642;22;20004;-91
2021/01/20 05:51:53;;;;;;;0.10;0.10;;;8.10;99.90;;;;;;6239994;23;20004;-90
2021/01/20 05:54:35;;;;;;;0.00;0.00;;;8.30;99.90;;;;;;6242316;22;20031;-91
2021/01/20 05:57:15;;;;;;;0.10;0.10;;;8.20;99.90;;;;;;6243032;22;20000;-92
2021/01/20 05:59:42;;;;;;;0.28;0.28;;;8.10;99.90;;;;;;6241326;23;20033;-92
2021/01/20 06:02:10;;;;;;;0.20;0.20;;;8.20;99.90;;;;;;6241415;22;20446;-90
2021/01/20 06:04:37;;;;;;;0.17;0.17;;;8.20;99.90;;;;;;6240834;22;20061;-90
2021/01/20 06:07:04;;;;;;;0.20;0.20;;;8.10;99.90;;;;;;6240765;22;20004;-91
2021/01/20 06:09:33;;;;;;;0.10;0.10;;;8.10;99.90;;;;;;6241310;22;20004;-92
2021/01/20 06:11:59;;;;;;;0.17;0.17;;;8.20;99.90;;;;;;6240466;23;20480;-91
2021/01/20 06:14:25;;;;;;;0.07;0.07;;;8.30;99.90;;;;;;6241421;22;20011;-92
2021/01/20 06:16:55;;;;;;;0.20;0.20;;;8.10;99.90;;;;;;6242326;22;20231;-89
2021/01/20 06:19:23;;;;;;;0.20;0.20;;;7.80;99.90;;;;;;6240311;23;20081;-91
2021/01/20 06:21:52;;;;;;;0.52;0.52;;;8.10;99.90;;;;;;6242111;22;20008;-90
2021/01/20 06:24:27;;;;;;;0.57;0.57;;;8.00;99.90;;;;;;6240322;23;20059;-94
2021/01/20 06:27:14;;;;;;;0.25;0.25;;;7.90;99.90;;;;;;6245459;22;20007;-93
2021/01/20 06:29:44;;;;;;;0.10;0.10;;;7.70;99.90;;;;;;6243591;23;20007;-93
2021/01/20 06:32:17;;;;;;;0.00;0.00;;;7.90;99.90;;;;;;6245389;22;20330;-95
2021/01/20 06:34:56;;;;;;;0.00;0.00;;;8.10;99.90;;;;;;6243080;23;20429;-92
2021/01/20 06:37:36;;;;;;;0.00;0.00;;;8.00;99.90;;;;;;6242655;23;20475;-91
2021/01/20 06:40:23;;;;;;;8.57;1.95;;;8.10;99.90;;;;;;6242284;23;20015;-92
2021/01/20 06:42:53;;;;;;;0.10;0.10;;;8.30;99.90;;;;;;6242650;23;20004;-93
2021/01/20 06:45:22;;;;;;;0.00;0.00;;;8.10;99.90;;;;;;6241006;23;20016;-90
2021/01/20 06:47:59;;;;;;;0.10;0.10;;;8.10;99.90;;;;;;6240855;22;20450;-91
2021/01/20 06:50:29;;;;;;;0.10;0.10;;;8.40;99.90;;;;;;6239048;23;20575;-90
2021/01/20 06:53:06;;;;;;;0.30;0.30;;;8.40;99.90;;;;;;6239636;23;20341;-91
2021/01/20 06:55:39;;;;;;;0.30;0.30;;;8.40;99.90;;;;;;6241667;22;20000;-92
2021/01/20 06:58:18;;;;;;;0.05;0.05;;;8.40;99.90;;;;;;6240247;23;20371;-91
2021/01/20 07:01:04;;;;;;;0.10;0.10;;;8.40;99.90;;;;;;6240674;22;20004;-91
2021/01/20 07:03:41;;;;;;;0.40;0.40;;;8.30;99.90;;;;;;6241337;23;20027;-92
2021/01/20 07:06:28;;;;;;;2.50;1.15;;;8.20;99.90;;;;;;6242311;22;20015;-91
2021/01/20 07:08:54;;;;;;;1.40;1.02;;;8.20;99.90;;;;;;6241486;22;20018;-91
2021/01/20 07:11:19;;;;;;;0.60;0.30;;;8.50;99.90;;;;;;6242850;23;20028;-93
2021/01/20 07:13:45;;;;;;;0.10;0.10;;;8.60;99.90;;;;;;6242304;23;20012;-93
2021/01/20 07:16:12;;;;;;;1.75;0.52;;;8.40;99.90;;;;;;6239788;23;20015;-93
2021/01/20 07:18:45;;;;;;;0.17;0.17;;;8.70;99.90;;;;;;6242912;22;20441;-93
2021/01/20 07:21:11;;;;;;;0.30;0.30;;;8.70;99.90;;;;;;6243682;22;20766;-92
2021/01/20 07:23:36;;;;;;;0.10;0.10;;;8.70;99.90;;;;;;6242328;23;20091;-91
2021/01/20 07:26:04;;;;;;;0.00;0.00;;;8.70;99.90;;;;;;6243726;22;20034;-92
2021/01/20 07:28:31;;;;;;;0.20;0.20;;;8.80;99.90;;;;;;6242299;23;20012;-92
2021/01/20 07:31:05;;;;;;;0.10;0.10;;;8.80;99.90;;;;;;6242098;23;20415;-92
2021/01/20 07:33:31;;;;;;;0.00;0.00;;;8.80;99.90;;;;;;6243873;22;20000;-92
2021/01/20 07:36:07;;;;;;;0.05;0.05;;;8.90;99.90;;;;;;6241665;23;20450;-91
2021/01/20 07:38:33;;;;;;;0.20;0.20;;;9.00;99.90;;;;;;6242002;23;20451;-91
2021/01/20 07:40:58;;;;;;;0.10;0.10;;;9.00;99.90;;;;;;6243197;22;20090;-92
2021/01/20 07:43:24;;;;;;;0.10;0.10;;;9.00;99.90;;;;;;6243492;22;20327;-92
2021/01/20 07:45:53;;;;;;;0.00;0.00;;;9.10;99.90;;;;;;6243344;23;20007;-92
2021/01/20 07:48:29;;;;;;;0.05;0.05;;;9.30;99.90;;;;;;6241861;23;20567;-92
2021/01/20 07:50:54;;;;;;;0.10;0.10;;;9.00;99.90;;;;;;6243020;22;20010;-92
2021/01/20 07:53:20;;;;;;;0.10;0.10;;;9.10;99.90;;;;;;6242121;23;20091;-92
2021/01/20 07:55:52;;;;;;;0.40;0.40;;;9.10;99.90;;;;;;6243567;22;20042;-92
2021/01/20 07:58:24;;;;;;;0.10;0.10;;;9.10;99.90;;;;;;6243679;22;20004;-92
2021/01/20 08:00:49;;;;;;;0.00;0.00;;;9.20;99.90;;;;;;6242167;23;20008;-93
2021/01/20 08:03:15;;;;;;;0.30;0.30;;;9.20;99.90;;;;;;6241705;23;20376;-91
2021/01/20 08:05:42;;;;;;;0.30;0.30;;;9.30;99.90;;;;;;6243635;22;20004;-93
2021/01/20 08:08:12;;;;;;;0.10;0.10;;;9.30;99.90;;;;;;6243778;22;20079;-91
2021/01/20 08:10:39;;;;;;;0.70;0.70;;;9.30;99.90;;;;;;6242049;23;20008;-91
2021/01/20 08:13:08;;;;;;;0.10;0.10;;;9.40;99.90;;;;;;6241670;23;20011;-91
2021/01/20 08:15:38;;;;;;;0.10;0.10;;;9.40;99.90;;;;;;6243959;22;20005;-91
2021/01/20 08:18:05;;;;;;;0.00;0.00;;;9.50;99.90;;;;;;6244094;22;20034;-91
2021/01/20 08:20:34;;;;;;;0.75;0.75;;;9.50;99.90;;;;;;6241899;23;20058;-92
2021/01/20 08:23:03;;;;;;;0.20;0.20;;;9.40;99.90;;;;;;6241297;23;20020;-92
2021/01/20 08:25:29;;;;;;;0.10;0.10;;;9.40;99.90;;;;;;6243557;22;20476;-92
2021/01/20 08:27:55;;;;;;;0.17;0.17;;;9.60;99.90;;;;;;6241773;23;20034;-92
2021/01/20 08:30:34;;;;;;;0.10;0.10;;;9.50;99.90;;;;;;6243222;22;20471;-91
2021/01/20 08:33:01;;;;;;;0.50;0.50;;;9.60;99.90;;;;;;6241983;23;20008;-92
2021/01/20 08:35:35;;;;;;;0.13;0.13;;;9.70;99.90;;;;;;6243584;22;20368;-92
2021/01/20 08:38:02;;;;;;;0.28;0.22;;;9.80;99.90;;;;;;6243966;22;20012;-92
2021/01/20 08:40:28;;;;;;;;;;;9.80;99.90;;;;;;6243585;23;20327;-93
2021/01/20 08:42:54;;;;;;;0.10;0.10;;;9.70;99.90;;;;;;6244488;23;19903;-93
2021/01/20 08:45:20;;;;;;;0.00;0.00;;;9.80;99.90;;;;;;6241883;23;20061;-93
2021/01/20 08:47:56;;;;;;;0.10;0.10;;;9.80;99.90;;;;;;6242624;23;20036;-93
2021/01/20 08:50:30;;;;;;;1.20;0.75;;;9.90;99.90;;;;;;6244440;23;20027;-92
2021/01/20 08:53:04;;;;;;;0.10;0.10;;;9.90;99.90;;;;;;6242058;23;20046;-93
2021/01/20 08:55:49;;;;;;;0.70;0.68;;;10.00;99.90;;;;;;6243681;22;20027;-92
2021/01/20 08:58:18;;;;;;;9.45;0.85;;;10.00;99.90;;;;;;6243404;22;20359;-92
2021/01/20 09:00:45;;;;;;;0.40;0.40;;;10.00;99.90;;;;;;6241353;23;20031;-92
2021/01/20 09:03:17;;;;;;;;;;;10.00;99.90;;;;;;6243261;22;20000;-91
2021/01/20 09:05:44;;;;;;;0.30;0.30;;;10.00;99.90;;;;;;6242715;22;20329;-91
2021/01/20 09:08:10;;;;;;;0.10;0.10;;;10.10;99.90;;;;;;6241446;23;20414;-92
2021/01/20 09:10:36;;;;;;;0.00;0.00;;;10.20;99.90;;;;;;6242251;22;20096;-91
2021/01/20 09:13:03;;;;;;;0.10;0.10;;;10.20;99.90;;;;;;6242452;22;20075;-91
2021/01/20 09:15:29;;;;;;;5.22;1.45;;;10.20;99.90;;;;;;6242677;22;20446;-92
2021/01/20 09:17:54;;;;;;;0.10;0.10;;;10.40;99.90;;;;;;6241190;23;20015;-91
2021/01/20 09:20:20;;;;;;;0.10;0.10;;;10.50;99.90;;;;;;6241168;23;20012;-91
2021/01/20 09:22:47;;;;;;;0.00;0.00;;;11.10;99.90;;;;;;6240780;23;20008;-91
2021/01/20 09:25:13;;;;;;;0.10;0.10;;;11.50;99.90;;;;;;6242059;22;20066;-92
2021/01/20 09:27:39;;;;;;;0.10;0.10;;;11.70;99.90;;;;;;6240704;23;20477;-92
2021/01/20 09:30:07;;;;;;;0.10;0.10;;;11.70;99.90;;;;;;6240778;23;20235;-92
2021/01/20 09:32:37;;;;;;;0.17;0.17;;;12.30;99.90;;;;;;6242376;22;20009;-92
2021/01/20 09:35:21;;;;;;;0.10;0.10;;;12.20;99.90;;;;;;6242867;22;20004;-92
2021/01/20 09:37:48;;;;;;;0.00;0.00;;;13.00;99.90;;;;;;6242367;23;20004;-92
2021/01/20 09:40:18;;;;;;;0.52;0.52;;;12.60;99.90;;;;;;6240923;23;20015;-92
2021/01/20 09:42:48;;;;;;;0.32;0.32;;;11.90;99.90;;;;;;6242029;22;20004;-91
2021/01/20 09:45:15;;;;;;;0.10;0.10;;;11.50;99.90;;;;;;6243191;22;20004;-92
2021/01/20 09:47:46;;;;;;;0.50;0.50;;;11.60;99.90;;;;;;6240287;23;20008;-93
2021/01/20 09:50:14;;;;;;;0.10;0.10;;;11.50;99.90;;;;;;6242940;22;20000;-92
2021/01/20 09:52:41;;;;;;;0.10;0.10;;;12.00;99.90;;;;;;6242539;22;20004;-92
2021/01/20 09:55:07;;;;;;;0.30;0.30;;;13.20;99.90;;;;;;6242895;22;20450;-92
2021/01/20 09:57:33;;;;;;;0.55;0.55;;;13.90;99.90;;;;;;6241737;23;20496;-92
2021/01/20 10:00:01;;;;;;;0.17;0.17;;;13.00;99.90;;;;;;6242467;23;20050;-91
2021/01/20 10:02:27;;;;;;;0.10;0.10;;;13.70;99.90;;;;;;6242799;22;20004;-91
2021/01/20 10:04:53;;;;;;;0.20;0.20;;;14.40;99.90;;;;;;6242404;22;20038;-92
2021/01/20 10:07:19;;;;;;;0.10;0.10;;;14.70;99.90;;;;;;6242666;22;20018;-92
2021/01/20 10:09:44;;;;;;;0.10;0.10;;;13.70;99.90;;;;;;6240326;23;20054;-93
2021/01/20 10:12:12;;;;;;;0.30;0.30;;;14.80;99.90;;;;;;6242601;23;20723;-92
2021/01/20 10:14:38;;;;;;;0.15;0.15;;;14.00;99.90;;;;;;6242391;22;20006;-91
2021/01/20 10:17:05;;;;;;;0.30;0.30;;;13.70;99.90;;;;;;6241487;22;20014;-90
2021/01/20 10:19:31;;;;;;;0.25;0.25;;;14.40;99.90;;;;;;6241798;22;20074;-91
2021/01/20 10:21:56;;;;;;;0.37;0.37;;;14.50;99.90;;;;;;6239541;23;20039;-91
2021/01/20 10:24:23;;;;;;;0.33;0.33;;;13.40;99.90;;;;;;6241612;22;20026;-91
2021/01/20 10:26:48;;;;;;;0.10;0.10;;;13.20;99.90;;;;;;6241964;22;20040;-93
2021/01/20 10:29:14;;;;;;;0.10;0.10;;;13.20;99.90;;;;;;6240419;23;20102;-93
2021/01/20 10:31:41;;;;;;;0.13;0.13;;;13.70;99.90;;;;;;6242529;23;20000;-93
2021/01/20 10:34:08;;;;;;;0.70;0.57;;;13.80;99.90;;;;;;6242085;22;20130;-90
2021/01/20 10:36:34;;;;;;;0.15;0.15;;;13.40;99.90;;;;;;6241491;22;20457;-89
2021/01/20 10:39:01;;;;;;;1.45;0.45;;;14.30;99.90;;;;;;6241306;22;20084;-90
2021/01/20 10:41:27;;;;;;;0.28;0.28;;;13.90;99.90;;;;;;6241816;22;20003;-90
2021/01/20 10:43:54;;;;;;;0.10;0.10;;;13.40;99.90;;;;;;6241323;23;20075;-90
2021/01/20 10:46:25;;;;;;;0.30;0.30;;;13.40;99.90;;;;;;6241392;22;20433;-91
2021/01/20 10:48:52;;;;;;;0.10;0.10;;;13.50;99.90;;;;;;6239849;23;20018;-91
2021/01/20 10:51:17;;;;;;;;;;;13.80;99.90;;;;;;6241642;22;20011;-90
2021/01/20 10:53:43;;;;;;;0.17;0.17;;;14.30;99.90;;;;;;6240741;23;19903;-91
2021/01/20 10:56:09;;;;;;;0.10;0.10;;;13.90;99.90;;;;;;6240904;23;20000;-90
2021/01/20 10:58:35;;;;;;;3.57;1.70;;;13.60;99.90;;;;;;6241167;22;20004;-90
2021/01/20 11:01:02;;;;;;;0.10;0.10;;;13.80;99.90;;;;;;6239373;23;20012;-91
2021/01/20 11:03:28;;;;;;;;;;;13.50;99.90;;;;;;6239879;23;20713;-91
2021/01/20 11:05:54;;;;;;;0.10;0.10;;;13.50;99.90;;;;;;6239373;23;19943;-91
2021/01/20 11:08:20;;;;;;;0.10;0.10;;;13.60;99.90;;;;;;6239299;23;20087;-91
2021/01/20 11:10:46;;;;;;;0.10;0.10;;;13.20;99.90;;;;;;6241297;22;19996;-92
2021/01/20 11:13:12;;;;;;;0.20;0.20;;;13.10;99.90;;;;;;6239686;23;20051;-92
2021/01/20 11:15:39;;;;;;;0.00;0.00;;;13.00;99.90;;;;;;6241007;22;20054;-92
2021/01/20 11:18:06;;;;;;;0.20;0.20;;;12.90;99.90;;;;;;6241646;22;20014;-92
2021/01/20 11:20:33;;;;;;;0.20;0.20;;;12.80;99.90;;;;;;6241555;22;20000;-91
2021/01/20 11:22:59;;;;;;;;;;;13.00;99.90;;;;;;6241874;22;20297;-91
2021/01/20 11:25:25;;;;;;;1.60;1.27;;;13.20;99.90;;;;;;6240991;22;19907;-92
2021/01/20 11:27:52;;;;;;;0.10;0.10;;;13.40;99.90;;;;;;6240721;22;20000;-91
2021/01/20 11:30:18;;;;;;;;;;;13.30;99.90;;;;;;6241430;22;20030;-91
2021/01/20 11:32:45;;;;;;;0.13;0.13;;;13.10;99.90;;;;;;6240402;23;19910;-92
2021/01/20 11:35:11;;;;;;;0.10;0.10;;;13.10;99.90;;;;;;6242527;22;20043;-92
2021/01/20 11:37:38;;;;;;;0.32;0.32;;;13.40;99.90;;;;;;6241889;22;20004;-91
2021/01/20 11:40:05;;;;;;;0.13;0.13;;;13.60;99.90;;;;;;6241215;22;20492;-92
2021/01/20 11:42:31;;;;;;;0.10;0.10;;;13.80;99.90;;;;;;6240953;22;20004;-91
2021/01/20 11:44:57;;;;;;;0.17;0.17;;;13.50;99.90;;;;;;6241469;22;20010;-91
2021/01/20 11:47:23;;;;;;;0.40;0.40;;;13.40;99.90;;;;;;6240753;22;20008;-91
2021/01/20 11:49:50;;;;;;;0.38;0.25;;;13.60;99.90;;;;;;6240001;23;20004;-91
2021/01/20 11:52:17;;;;;;;3.50;0.65;;;13.60;99.90;;;;;;6241055;22;20050;-91
2021/01/20 11:54:43;;;;;;;0.10;0.10;;;13.50;99.90;;;;;;6240901;22;20004;-92
2021/01/20 11:57:09;;;;;;;12.55;2.75;;;13.40;99.90;;;;;;6240521;22;20031;-91
2021/01/20 11:59:35;;;;;;;0.10;0.10;;;13.40;99.90;;;;;;6240167;22;20446;-92
2021/01/20 12:02:01;;;;;;;0.17;0.17;;;13.40;99.90;;;;;;6238859;23;20012;-91
2021/01/20 12:04:27;;;;;;;0.10;0.10;;;13.20;99.90;;;;;;6240614;22;20000;-91
2021/01/20 12:06:52;;;;;;;0.30;0.30;;;13.20;99.90;;;;;;6242459;22;20004;-91
2021/01/20 12:09:19;;;;;;;0.10;0.10;;;13.10;99.90;;;;;;6241257;23;20023;-91
2021/01/20 12:11:46;;;;;;;;;;;13.20;99.90;;;;;;6242933;23;20746;-91
2021/01/20 12:14:13;;;;;;;0.25;0.25;;;13.30;99.90;;;;;;6243396;22;19909;-91
2021/01/20 12:16:39;;;;;;;;;;;13.30;99.90;;;;;;6243259;22;19996;-90
2021/01/20 12:19:05;;;;;;;0.10;0.10;;;13.30;99.90;;;;;;6243492;23;19985;-91
2021/01/20 12:21:31;;;;;;;0.60;0.60;;;13.20;99.90;;;;;;6243302;22;20000;-91
2021/01/20 12:23:57;;;;;;;0.15;0.15;;;13.20;99.90;;;;;;6242273;23;20012;-91
2021/01/20 12:26:23;;;;;;;0.20;0.20;;;13.20;99.90;;;;;;6240750;23;20020;-92
2021/01/20 12:28:49;;;;;;;0.15;0.15;;;13.20;99.90;;;;;;6240242;23;20012;-91
2021/01/20 12:31:15;;;;;;;0.20;0.20;;;13.10;99.90;;;;;;6242832;22;20422;-91
2021/01/20 12:33:41;;;;;;;8.73;1.30;;;13.20;99.90;;;;;;6242392;22;20030;-90
2021/01/20 12:36:07;;;;;;;0.67;0.33;;;13.30;99.90;;;;;;6241058;23;20004;-91
2021/01/20 12:38:33;;;;;;;0.10;0.10;;;13.30;99.90;;;;;;6243248;23;20457;-91
2021/01/20 12:40:59;;;;;;;0.10;0.10;;;13.30;99.90;;;;;;6240944;23;20085;-91
2021/01/20 12:43:26;;;;;;;0.20;0.20;;;13.30;99.90;;;;;;6242988;22;20028;-91
2021/01/20 12:45:52;;;;;;;0.87;0.57;;;13.30;99.90;;;;;;6242661;22;20000;-91
2021/01/20 12:48:19;;;;;;;0.90;0.68;;;13.50;99.90;;;;;;6242548;22;20004;-91
2021/01/20 12:50:48;;;;;;;0.10;0.10;;;13.50;99.90;;;;;;6240450;23;20522;-91
2021/01/20 12:53:15;;;;;;;0.20;0.20;;;13.50;99.90;;;;;;6240573;23;20587;-91
2021/01/20 12:55:41;;;;;;;0.20;0.20;;;13.60;99.90;;;;;;6240553;23;20004;-91
2021/01/20 12:58:07;;;;;;;0.52;0.52;;;13.50;99.90;;;;;;6240657;23;20008;-90
2021/01/20 13:00:33;;;;;;;0.10;0.10;;;13.50;99.90;;;;;;6240272;23;20032;-90